createdAt,value
2018-12-22T00:04:01.174Z,9.4
2018-12-22T00:09:01.560Z,9.0
2018-12-22T00:14:01.178Z,9.8
2018-12-22T00:19:06.127Z,10.1
2018-12-22T00:25:01.232Z,10.5
2018-12-22T00:30:01.100Z,10.6
2018-12-22T00:35:01.167Z,10.4
2018-12-22T00:40:01.109Z,10.3
2018-12-22T00:45:01.248Z,9.5
2018-12-22T00:50:01.115Z,8.7
2018-12-22T00:55:01.106Z,9.0
2018-12-22T01:00:01.117Z,8.4
2018-12-22T01:05:01.246Z,7.6
2018-12-22T01:15:06.179Z,7.6
2018-12-22T01:20:06.310Z,7.2
2018-12-22T01:30:06.184Z,6.9
2018-12-22T01:35:06.243Z,7.4
2018-12-22T01:45:01.143Z,7.0
2018-12-22T01:50:01.157Z,7.4
2018-12-22T01:55:01.279Z,8.7
2018-12-22T02:00:06.132Z,8.4
2018-12-22T02:05:01.147Z,8.7
2018-12-22T02:10:01.114Z,9.4
2018-12-22T02:15:01.120Z,11.3
2018-12-22T02:20:01.121Z,14.5
2018-12-22T02:25:02.002Z,16.9
2018-12-22T02:30:01.107Z,17.4
2018-12-22T02:35:01.168Z,18.3
2018-12-22T02:40:06.181Z,18.2
2018-12-22T02:45:01.181Z,15.2
2018-12-22T02:50:01.114Z,14.1
2018-12-22T02:55:01.183Z,14.8
2018-12-22T03:00:01.129Z,14.0
2018-12-22T03:05:01.121Z,12.7
2018-12-22T03:10:01.118Z,13.1
2018-12-22T03:15:01.162Z,13.2
2018-12-22T03:20:06.113Z,12.5
2018-12-22T03:30:01.174Z,12.9
2018-12-22T03:35:01.171Z,13.0
2018-12-22T03:40:06.118Z,12.0
2018-12-22T03:45:06.187Z,11.7
2018-12-22T03:50:06.126Z,11.3
2018-12-22T03:55:01.230Z,10.2
2018-12-22T04:00:01.153Z,10.4
2018-12-22T04:05:01.224Z,11.3
2018-12-22T04:10:01.138Z,12.3
2018-12-22T04:15:06.282Z,12.8
2018-12-22T04:20:01.145Z,13.9
2018-12-22T04:25:03.316Z,12.2
2018-12-22T04:30:01.073Z,11.8
2018-12-22T04:35:06.256Z,12.8
2018-12-22T04:40:01.105Z,13.4
2018-12-22T04:45:01.175Z,13.7
2018-12-22T04:50:01.115Z,14.8
2018-12-22T04:55:01.274Z,15.3
2018-12-22T05:00:01.125Z,14.4
2018-12-22T05:05:01.119Z,13.6
2018-12-22T05:10:01.107Z,13.1
2018-12-22T05:15:01.179Z,13.1
2018-12-22T05:20:01.762Z,13.6
2018-12-22T05:25:01.172Z,13.3
2018-12-22T05:30:01.104Z,13.8
2018-12-22T05:35:01.111Z,14.6
2018-12-22T05:40:01.107Z,14.9
2018-12-22T05:45:06.182Z,13.6
2018-12-22T05:50:01.108Z,14.0
2018-12-22T06:00:01.187Z,13.6
2018-12-22T06:05:01.208Z,12.6
2018-12-22T06:10:01.160Z,13.0
2018-12-22T06:15:01.218Z,13.1
2018-12-22T06:20:01.147Z,13.4
2018-12-22T06:25:01.138Z,12.8
2018-12-22T06:30:08.880Z,16.0
2018-12-22T06:40:02.212Z,15.2
2018-12-22T06:45:01.236Z,14.9
2018-12-22T06:50:01.109Z,16.8
2018-12-22T06:55:01.119Z,14.8
2018-12-22T07:00:02.146Z,14.8
2018-12-22T07:05:02.254Z,15.0
2018-12-22T07:10:01.137Z,15.6
2018-12-22T07:15:06.262Z,16.2
2018-12-22T07:20:06.111Z,18.0
2018-12-22T07:25:06.244Z,18.5
2018-12-22T07:30:06.110Z,18.9
2018-12-22T07:35:01.202Z,19.5
2018-12-22T07:40:06.126Z,17.6
2018-12-22T07:45:06.178Z,15.7
2018-12-22T07:50:06.108Z,14.5
2018-12-22T07:55:06.244Z,13.9
2018-12-22T08:00:06.299Z,12.7
2018-12-22T08:10:06.360Z,12.4
2018-12-22T08:15:06.181Z,13.7
2018-12-22T08:20:01.119Z,14.3
2018-12-22T08:25:01.108Z,14.0
2018-12-22T08:30:01.110Z,14.2
2018-12-22T08:35:01.178Z,13.5
2018-12-22T08:40:01.225Z,13.4
2018-12-22T08:45:01.185Z,13.8
2018-12-22T08:50:08.704Z,14.1
2018-12-22T08:55:01.115Z,13.5
2018-12-22T09:00:01.128Z,14.5
2018-12-22T09:05:01.235Z,15.0
2018-12-22T09:10:01.114Z,13.6
2018-12-22T09:15:01.168Z,13.6
2018-12-22T09:20:01.107Z,14.0
2018-12-22T09:25:01.182Z,13.5
2018-12-22T09:30:01.111Z,12.9
2018-12-22T09:35:01.240Z,13.6
2018-12-22T09:40:01.127Z,14.2
2018-12-22T09:45:01.104Z,14.0
2018-12-22T09:50:01.115Z,14.2
2018-12-22T09:55:01.179Z,14.8
2018-12-22T10:00:07.147Z,14.5
2018-12-22T10:05:06.247Z,14.0
2018-12-22T10:10:06.117Z,14.2
2018-12-22T10:15:06.238Z,15.0
2018-12-22T10:20:06.110Z,14.4
2018-12-22T10:25:01.208Z,14.8
2018-12-22T10:30:06.176Z,14.5
2018-12-22T10:35:06.189Z,14.8
2018-12-22T10:40:06.123Z,14.0
2018-12-22T10:45:01.217Z,14.4
2018-12-22T10:50:01.147Z,14.0
2018-12-22T11:00:01.252Z,12.9
2018-12-22T11:05:01.098Z,12.7
2018-12-22T11:10:01.099Z,12.2
2018-12-22T11:15:01.230Z,11.8
2018-12-22T11:20:01.102Z,12.3
2018-12-22T11:25:01.181Z,13.3
2018-12-22T11:30:01.078Z,13.5
2018-12-22T11:35:01.176Z,13.7
2018-12-22T11:40:01.110Z,14.2
2018-12-22T11:45:01.240Z,14.4
2018-12-22T11:50:01.115Z,13.9
2018-12-22T11:55:01.230Z,13.6
2018-12-22T12:00:01.110Z,13.2
2018-12-22T12:10:01.235Z,13.5
2018-12-22T12:15:01.173Z,14.2
2018-12-22T12:20:01.109Z,14.6
2018-12-22T12:25:01.252Z,14.4
2018-12-22T12:30:01.115Z,14.4
2018-12-22T12:35:01.183Z,13.5
2018-12-22T12:40:01.165Z,13.4
2018-12-22T12:45:01.106Z,13.7
2018-12-22T12:50:06.110Z,14.3
2018-12-22T12:55:01.248Z,14.8
2018-12-22T13:00:01.076Z,15.4
2018-12-22T13:05:06.112Z,15.2
2018-12-22T13:10:06.120Z,15.1
2018-12-22T13:15:01.170Z,15.1
2018-12-22T13:25:01.183Z,14.8
2018-12-22T13:30:01.120Z,14.1
2018-12-22T13:35:01.229Z,14.6
2018-12-22T13:45:06.174Z,15.0
2018-12-22T13:50:06.223Z,15.7
2018-12-22T13:55:06.115Z,16.3
2018-12-22T14:00:06.116Z,15.6
2018-12-22T14:05:01.264Z,15.4
2018-12-22T14:15:06.252Z,14.8
2018-12-22T14:20:01.137Z,15.7
2018-12-22T14:25:01.183Z,15.8
2018-12-22T14:30:01.239Z,16.3
2018-12-22T14:35:06.250Z,16.4
2018-12-22T14:40:06.108Z,17.6
2018-12-22T14:45:06.240Z,17.9
2018-12-22T14:50:06.103Z,18.0
2018-12-22T14:55:06.177Z,17.3
2018-12-22T15:00:06.117Z,17.0
2018-12-22T15:05:06.258Z,15.6
2018-12-22T15:10:01.140Z,14.5
2018-12-22T15:15:01.206Z,14.8
2018-12-22T15:20:06.116Z,15.8
2018-12-22T15:25:06.184Z,16.4
2018-12-22T15:30:01.119Z,17.3
2018-12-22T15:40:01.177Z,19.4
2018-12-22T15:45:06.117Z,18.8
2018-12-22T15:55:01.232Z,19.1
2018-12-22T16:00:01.107Z,19.5
2018-12-22T16:05:01.166Z,17.6
2018-12-22T16:10:01.105Z,20.0
2018-12-22T16:15:01.172Z,21.6
2018-12-22T16:20:06.124Z,23.4
2018-12-22T16:25:01.242Z,25.8
2018-12-22T16:30:01.117Z,27.6
2018-12-22T16:35:06.112Z,27.1
2018-12-22T16:40:01.102Z,25.4
2018-12-22T16:45:06.184Z,24.0
2018-12-22T16:50:06.110Z,22.3
2018-12-22T16:55:01.159Z,20.8
2018-12-22T17:00:06.131Z,21.1
2018-12-22T17:05:02.261Z,21.8
2018-12-22T17:10:01.110Z,22.2
2018-12-22T17:15:01.178Z,23.5
2018-12-22T17:20:01.086Z,24.4
2018-12-22T17:26:01.096Z,23.8
2018-12-22T17:31:01.165Z,24.2
2018-12-22T17:36:01.105Z,23.7
2018-12-22T17:41:06.174Z,23.9
2018-12-22T17:46:01.070Z,25.3
2018-12-22T17:51:01.240Z,25.1
2018-12-22T17:56:11.119Z,25.6
2018-12-22T18:01:01.202Z,28.0
2018-12-22T18:06:01.146Z,28.2
2018-12-22T18:11:01.214Z,27.7
2018-12-22T18:16:01.123Z,29.4
2018-12-22T18:21:01.164Z,30.0
2018-12-22T18:31:01.257Z,30.4
2018-12-22T18:36:06.106Z,31.6
2018-12-22T18:41:06.237Z,33.6
2018-12-22T18:46:01.137Z,33.4
2018-12-22T18:51:01.268Z,33.0
2018-12-22T18:56:01.140Z,33.9
2018-12-22T19:01:06.239Z,34.5
2018-12-22T19:06:01.146Z,33.2
2018-12-22T19:11:01.198Z,32.4
2018-12-22T19:16:01.270Z,33.2
2018-12-22T19:21:01.201Z,32.0
2018-12-22T19:26:06.111Z,31.0
2018-12-22T19:31:06.179Z,30.8
2018-12-22T19:36:07.144Z,31.4
2018-12-22T19:41:01.214Z,30.6
2018-12-22T19:46:11.123Z,31.4
2018-12-22T19:51:06.181Z,30.0
2018-12-22T19:56:01.153Z,28.4
2018-12-22T20:01:01.267Z,28.8
2018-12-22T20:06:01.151Z,28.4
2018-12-22T20:11:01.220Z,27.3
2018-12-22T20:16:08.666Z,28.8
2018-12-22T20:21:01.209Z,30.6
2018-12-22T20:26:01.143Z,30.1
2018-12-22T20:31:01.275Z,31.4
2018-12-22T20:36:01.150Z,32.3
2018-12-22T20:41:01.231Z,32.0
2018-12-22T20:46:01.154Z,31.4
2018-12-22T20:51:01.169Z,30.5
2018-12-22T20:56:01.143Z,29.5
2018-12-22T21:01:06.128Z,28.8
2018-12-22T21:06:01.151Z,27.9
2018-12-22T21:12:01.273Z,28.0
2018-12-22T21:17:01.143Z,30.9
2018-12-22T21:22:01.262Z,30.1
2018-12-22T21:27:06.123Z,30.5
2018-12-22T21:32:01.214Z,31.0
2018-12-22T21:37:01.148Z,29.9
2018-12-22T21:42:11.190Z,27.9
2018-12-22T21:47:06.114Z,29.7
2018-12-22T21:52:06.181Z,29.5
2018-12-22T21:57:06.105Z,29.6
2018-12-22T22:02:06.236Z,30.3
2018-12-22T22:07:06.108Z,30.1
2018-12-22T22:12:07.139Z,28.6
2018-12-22T22:17:06.121Z,28.8
2018-12-22T22:22:06.191Z,29.5
2018-12-22T22:27:06.128Z,28.2
2018-12-22T22:32:06.245Z,27.0
2018-12-22T22:37:01.151Z,26.3
2018-12-22T22:42:06.253Z,26.2
2018-12-22T22:47:06.119Z,25.0
2018-12-22T22:52:01.163Z,24.3
2018-12-22T22:58:01.109Z,25.2
2018-12-22T23:03:01.174Z,25.0
2018-12-22T23:08:01.101Z,23.4
2018-12-22T23:13:01.229Z,21.8
2018-12-22T23:23:06.192Z,20.6
2018-12-22T23:28:06.119Z,20.7
2018-12-22T23:33:06.189Z,19.2
2018-12-22T23:38:01.136Z,18.5
2018-12-22T23:43:01.269Z,17.6
2018-12-22T23:48:01.708Z,16.8
2018-12-22T23:53:01.194Z,15.0
2018-12-22T23:58:06.104Z,15.8
